Brusly, Louisiana
Current Conditions -  °F | °C
As of 3:53 PM on Wednesday 26 Nov 2014 (Local Time) from KBTR Reporting Station
Clear Clear  
Wind Chill: 68°   Ceiling: Unl
Heat Index: 68°   Visibility: 10mi
Dew Point: 33°   Wind: 16mph
Humidity: 27%   Direction: 250°WSW
Pressure: 30.16"   Gusts: NA
Location:  30.39°N, 91.25°W
Report Text: KBTR 262153Z 25014KT 10SM CLR 20/01 A3016 RMK AO2 SLP212 T02000006
Loading
Personal Weather Stations






























Interactive Weather Map New forecast layout! Learn more

10-Day Weather Forecast

Advertisements
Track Severe Weather on mobile